sensor_id;sensor_type;location;lat;lon;timestamp;temperature;humidity
17639;DHT22;8938;53.546;9.954;2023-04-21T00:02:23;11.60;99.90
17639;DHT22;8938;53.546;9.954;2023-04-21T00:04:50;11.60;99.90
17639;DHT22;8938;53.546;9.954;2023-04-21T00:07:15;11.60;99.90
17639;DHT22;8938;53.546;9.954;2023-04-21T00:09:41;11.60;99.90
17639;DHT22;8938;53.546;9.954;2023-04-21T00:12:07;11.70;99.90
17639;DHT22;8938;53.546;9.954;2023-04-21T00:14:32;11.60;99.90
17639;DHT22;8938;53.546;9.954;2023-04-21T00:16:58;11.60;99.90
17639;DHT22;8938;53.546;9.954;2023-04-21T00:19:25;11.60;99.90
17639;DHT22;8938;53.546;9.954;2023-04-21T00:21:52;11.60;99.90
17639;DHT22;8938;53.546;9.954;2023-04-21T00:24:23;11.60;99.90
17639;DHT22;8938;53.546;9.954;2023-04-21T00:26:49;11.60;99.90
17639;DHT22;8938;53.546;9.954;2023-04-21T00:29:15;11.60;99.90
17639;DHT22;8938;53.546;9.954;2023-04-21T00:31:40;11.50;99.90
17639;DHT22;8938;53.546;9.954;2023-04-21T00:34:06;11.50;99.90
17639;DHT22;8938;53.546;9.954;2023-04-21T00:36:31;11.60;99.90
17639;DHT22;8938;53.546;9.954;2023-04-21T00:38:57;11.70;99.90
17639;DHT22;8938;53.546;9.954;2023-04-21T00:41:22;11.70;99.90
17639;DHT22;8938;53.546;9.954;2023-04-21T00:46:27;11.80;99.90
17639;DHT22;8938;53.546;9.954;2023-04-21T00:48:52;11.80;99.90
17639;DHT22;8938;53.546;9.954;2023-04-21T00:51:18;11.80;99.90
17639;DHT22;8938;53.546;9.954;2023-04-21T00:53:44;11.70;99.90
17639;DHT22;8938;53.546;9.954;2023-04-21T00:56:10;11.80;99.90
17639;DHT22;8938;53.546;9.954;2023-04-21T00:58:35;11.70;99.90
17639;DHT22;8938;53.546;9.954;2023-04-21T01:01:03;11.70;99.90
17639;DHT22;8938;53.546;9.954;2023-04-21T01:03:30;11.70;99.90
17639;DHT22;8938;53.546;9.954;2023-04-21T01:05:56;11.70;99.90
17639;DHT22;8938;53.546;9.954;2023-04-21T01:08:22;11.70;99.90
17639;DHT22;8938;53.546;9.954;2023-04-21T01:10:47;11.70;99.90
17639;DHT22;8938;53.546;9.954;2023-04-21T01:13:13;11.80;99.90
17639;DHT22;8938;53.546;9.954;2023-04-21T01:15:38;11.80;99.90
17639;DHT22;8938;53.546;9.954;2023-04-21T01:18:04;11.80;99.90
17639;DHT22;8938;53.546;9.954;2023-04-21T01:20:29;11.80;99.90
17639;DHT22;8938;53.546;9.954;2023-04-21T01:22:55;11.70;99.90
17639;DHT22;8938;53.546;9.954;2023-04-21T01:25:20;11.70;99.90
17639;DHT22;8938;53.546;9.954;2023-04-21T01:27:50;11.70;99.90
17639;DHT22;8938;53.546;9.954;2023-04-21T01:30:16;11.70;99.90
17639;DHT22;8938;53.546;9.954;2023-04-21T01:32:42;11.70;99.90
17639;DHT22;8938;53.546;9.954;2023-04-21T01:35:08;11.80;99.90
17639;DHT22;8938;53.546;9.954;2023-04-21T01:37:34;11.80;99.90
17639;DHT22;8938;53.546;9.954;2023-04-21T01:40:02;11.80;99.90
17639;DHT22;8938;53.546;9.954;2023-04-21T01:42:30;11.80;99.90
17639;DHT22;8938;53.546;9.954;2023-04-21T01:44:56;11.70;99.90
17639;DHT22;8938;53.546;9.954;2023-04-21T01:47:23;11.70;99.90
17639;DHT22;8938;53.546;9.954;2023-04-21T01:49:49;11.70;99.90
17639;DHT22;8938;53.546;9.954;2023-04-21T01:52:14;11.60;99.90
17639;DHT22;8938;53.546;9.954;2023-04-21T01:54:40;11.60;99.90
17639;DHT22;8938;53.546;9.954;2023-04-21T01:57:06;11.60;99.90
17639;DHT22;8938;53.546;9.954;2023-04-21T01:59:31;11.60;99.90
17639;DHT22;8938;53.546;9.954;2023-04-21T02:01:57;11.70;99.90
17639;DHT22;8938;53.546;9.954;2023-04-21T02:04:22;11.70;99.90
17639;DHT22;8938;53.546;9.954;2023-04-21T02:06:48;11.60;99.90
17639;DHT22;8938;53.546;9.954;2023-04-21T02:09:13;11.60;99.90
17639;DHT22;8938;53.546;9.954;2023-04-21T02:11:39;11.70;99.90
17639;DHT22;8938;53.546;9.954;2023-04-21T02:14:04;11.60;99.90
17639;DHT22;8938;53.546;9.954;2023-04-21T02:16:30;11.70;99.90
17639;DHT22;8938;53.546;9.954;2023-04-21T02:18:56;11.70;99.90
17639;DHT22;8938;53.546;9.954;2023-04-21T02:21:22;11.70;99.90
17639;DHT22;8938;53.546;9.954;2023-04-21T02:23:48;11.60;99.90
17639;DHT22;8938;53.546;9.954;2023-04-21T02:26:14;11.60;99.90
17639;DHT22;8938;53.546;9.954;2023-04-21T02:28:40;11.50;99.90
17639;DHT22;8938;53.546;9.954;2023-04-21T02:31:05;11.50;99.90
17639;DHT22;8938;53.546;9.954;2023-04-21T02:33:31;11.50;99.90
17639;DHT22;8938;53.546;9.954;2023-04-21T02:35:56;11.50;99.90
17639;DHT22;8938;53.546;9.954;2023-04-21T02:38:22;11.40;99.90
17639;DHT22;8938;53.546;9.954;2023-04-21T02:40:47;11.40;99.90
17639;DHT22;8938;53.546;9.954;2023-04-21T02:43:15;11.40;99.90
17639;DHT22;8938;53.546;9.954;2023-04-21T02:45:40;11.50;99.90
17639;DHT22;8938;53.546;9.954;2023-04-21T02:48:15;11.40;99.90
17639;DHT22;8938;53.546;9.954;2023-04-21T02:50:45;11.40;99.90
17639;DHT22;8938;53.546;9.954;2023-04-21T02:53:10;11.40;99.90
17639;DHT22;8938;53.546;9.954;2023-04-21T02:55:36;11.40;99.90
17639;DHT22;8938;53.546;9.954;2023-04-21T02:58:01;11.40;99.90
17639;DHT22;8938;53.546;9.954;2023-04-21T03:00:27;11.50;99.90
17639;DHT22;8938;53.546;9.954;2023-04-21T03:02:52;11.50;99.90
17639;DHT22;8938;53.546;9.954;2023-04-21T03:05:18;11.50;99.90
17639;DHT22;8938;53.546;9.954;2023-04-21T03:07:44;11.50;99.90
17639;DHT22;8938;53.546;9.954;2023-04-21T03:10:10;11.50;99.90
17639;DHT22;8938;53.546;9.954;2023-04-21T03:12:36;11.50;99.90
17639;DHT22;8938;53.546;9.954;2023-04-21T03:15:01;11.40;99.90
17639;DHT22;8938;53.546;9.954;2023-04-21T03:17:27;11.40;99.90
17639;DHT22;8938;53.546;9.954;2023-04-21T03:19:53;11.40;99.90
17639;DHT22;8938;53.546;9.954;2023-04-21T03:22:18;11.40;99.90
17639;DHT22;8938;53.546;9.954;2023-04-21T03:24:43;11.60;99.90
17639;DHT22;8938;53.546;9.954;2023-04-21T03:27:09;11.60;99.90
17639;DHT22;8938;53.546;9.954;2023-04-21T03:29:35;11.70;99.90
17639;DHT22;8938;53.546;9.954;2023-04-21T03:32:00;11.70;99.90
17639;DHT22;8938;53.546;9.954;2023-04-21T03:34:26;11.60;99.90
17639;DHT22;8938;53.546;9.954;2023-04-21T03:36:51;11.70;99.90
17639;DHT22;8938;53.546;9.954;2023-04-21T03:39:17;11.70;99.90
17639;DHT22;8938;53.546;9.954;2023-04-21T03:41:42;11.70;99.90
17639;DHT22;8938;53.546;9.954;2023-04-21T03:44:08;11.70;99.90
17639;DHT22;8938;53.546;9.954;2023-04-21T03:46:33;11.70;99.90
17639;DHT22;8938;53.546;9.954;2023-04-21T03:48:59;11.70;99.90
17639;DHT22;8938;53.546;9.954;2023-04-21T03:51:24;11.70;99.90
17639;DHT22;8938;53.546;9.954;2023-04-21T03:53:51;11.80;99.90
17639;DHT22;8938;53.546;9.954;2023-04-21T03:56:17;11.80;99.90
17639;DHT22;8938;53.546;9.954;2023-04-21T03:58:42;11.80;99.90
17639;DHT22;8938;53.546;9.954;2023-04-21T04:01:08;11.80;99.90
17639;DHT22;8938;53.546;9.954;2023-04-21T04:03:33;11.90;99.90
17639;DHT22;8938;53.546;9.954;2023-04-21T04:05:59;11.90;99.90
17639;DHT22;8938;53.546;9.954;2023-04-21T04:08:24;11.90;99.90
17639;DHT22;8938;53.546;9.954;2023-04-21T04:10:50;11.90;99.90
17639;DHT22;8938;53.546;9.954;2023-04-21T04:13:16;11.90;99.90
17639;DHT22;8938;53.546;9.954;2023-04-21T04:15:41;11.90;99.90
17639;DHT22;8938;53.546;9.954;2023-04-21T04:18:07;11.90;99.90
17639;DHT22;8938;53.546;9.954;2023-04-21T04:20:32;11.90;99.90
17639;DHT22;8938;53.546;9.954;2023-04-21T04:22:58;11.90;99.90
17639;DHT22;8938;53.546;9.954;2023-04-21T04:25:23;11.90;99.90
17639;DHT22;8938;53.546;9.954;2023-04-21T04:27:49;12.00;99.90
17639;DHT22;8938;53.546;9.954;2023-04-21T04:30:15;12.00;99.90
17639;DHT22;8938;53.546;9.954;2023-04-21T04:32:41;11.90;99.90
17639;DHT22;8938;53.546;9.954;2023-04-21T04:35:08;12.00;99.90
17639;DHT22;8938;53.546;9.954;2023-04-21T04:37:37;11.90;99.90
17639;DHT22;8938;53.546;9.954;2023-04-21T04:40:04;11.90;99.90
17639;DHT22;8938;53.546;9.954;2023-04-21T04:42:30;11.80;99.90
17639;DHT22;8938;53.546;9.954;2023-04-21T04:44:57;11.80;99.90
17639;DHT22;8938;53.546;9.954;2023-04-21T04:47:23;11.80;99.90
17639;DHT22;8938;53.546;9.954;2023-04-21T04:49:49;11.90;99.90
17639;DHT22;8938;53.546;9.954;2023-04-21T04:52:15;11.90;99.90
17639;DHT22;8938;53.546;9.954;2023-04-21T04:54:40;11.90;99.90
17639;DHT22;8938;53.546;9.954;2023-04-21T04:57:06;12.00;99.90
17639;DHT22;8938;53.546;9.954;2023-04-21T04:59:31;12.00;99.90
17639;DHT22;8938;53.546;9.954;2023-04-21T05:01:57;11.90;99.90
17639;DHT22;8938;53.546;9.954;2023-04-21T05:04:23;12.00;99.90
17639;DHT22;8938;53.546;9.954;2023-04-21T05:06:48;12.00;99.90
17639;DHT22;8938;53.546;9.954;2023-04-21T05:09:14;12.00;99.90
17639;DHT22;8938;53.546;9.954;2023-04-21T05:11:40;12.00;99.90
17639;DHT22;8938;53.546;9.954;2023-04-21T05:14:06;12.10;99.90
17639;DHT22;8938;53.546;9.954;2023-04-21T05:16:31;12.10;99.90
17639;DHT22;8938;53.546;9.954;2023-04-21T05:19:00;12.20;99.90
17639;DHT22;8938;53.546;9.954;2023-04-21T05:21:26;12.10;99.90
17639;DHT22;8938;53.546;9.954;2023-04-21T05:23:56;12.20;99.90
17639;DHT22;8938;53.546;9.954;2023-04-21T05:26:22;12.30;99.90
17639;DHT22;8938;53.546;9.954;2023-04-21T05:28:48;12.30;99.90
17639;DHT22;8938;53.546;9.954;2023-04-21T05:31:14;12.30;99.90
17639;DHT22;8938;53.546;9.954;2023-04-21T05:33:39;12.30;99.90
17639;DHT22;8938;53.546;9.954;2023-04-21T05:36:08;12.40;99.90
17639;DHT22;8938;53.546;9.954;2023-04-21T05:38:35;12.40;99.90
17639;DHT22;8938;53.546;9.954;2023-04-21T05:41:01;12.60;99.90
17639;DHT22;8938;53.546;9.954;2023-04-21T05:43:29;12.60;99.90
17639;DHT22;8938;53.546;9.954;2023-04-21T05:45:58;12.90;99.90
17639;DHT22;8938;53.546;9.954;2023-04-21T05:48:24;12.80;99.90
17639;DHT22;8938;53.546;9.954;2023-04-21T05:50:49;12.90;99.90
17639;DHT22;8938;53.546;9.954;2023-04-21T05:53:16;12.90;99.90
17639;DHT22;8938;53.546;9.954;2023-04-21T05:55:41;13.10;99.90
17639;DHT22;8938;53.546;9.954;2023-04-21T05:58:07;13.00;99.90
17639;DHT22;8938;53.546;9.954;2023-04-21T06:00:32;13.00;99.90
17639;DHT22;8938;53.546;9.954;2023-04-21T06:02:58;13.10;99.90
17639;DHT22;8938;53.546;9.954;2023-04-21T06:05:23;13.20;99.90
17639;DHT22;8938;53.546;9.954;2023-04-21T06:07:49;13.30;99.90
17639;DHT22;8938;53.546;9.954;2023-04-21T06:10:16;13.30;99.90
17639;DHT22;8938;53.546;9.954;2023-04-21T06:12:42;13.30;99.90
17639;DHT22;8938;53.546;9.954;2023-04-21T06:15:08;13.40;99.90
17639;DHT22;8938;53.546;9.954;2023-04-21T06:17:33;13.50;99.90
17639;DHT22;8938;53.546;9.954;2023-04-21T06:19:59;13.50;99.90
17639;DHT22;8938;53.546;9.954;2023-04-21T06:22:26;13.60;99.90
17639;DHT22;8938;53.546;9.954;2023-04-21T06:24:52;13.70;99.90
17639;DHT22;8938;53.546;9.954;2023-04-21T06:27:17;13.70;99.90
17639;DHT22;8938;53.546;9.954;2023-04-21T06:29:43;13.80;99.90
17639;DHT22;8938;53.546;9.954;2023-04-21T06:32:09;13.80;99.90
17639;DHT22;8938;53.546;9.954;2023-04-21T06:34:35;13.90;99.90
17639;DHT22;8938;53.546;9.954;2023-04-21T06:37:00;13.90;99.90
17639;DHT22;8938;53.546;9.954;2023-04-21T06:39:26;13.80;99.90
17639;DHT22;8938;53.546;9.954;2023-04-21T06:41:52;13.90;99.90
17639;DHT22;8938;53.546;9.954;2023-04-21T06:44:18;14.10;99.90
17639;DHT22;8938;53.546;9.954;2023-04-21T06:46:43;14.00;99.90
17639;DHT22;8938;53.546;9.954;2023-04-21T06:49:09;14.00;99.90
17639;DHT22;8938;53.546;9.954;2023-04-21T06:51:35;14.10;99.90
17639;DHT22;8938;53.546;9.954;2023-04-21T06:54:04;14.20;99.90
17639;DHT22;8938;53.546;9.954;2023-04-21T06:56:30;14.30;99.90
17639;DHT22;8938;53.546;9.954;2023-04-21T06:58:56;14.40;99.90
17639;DHT22;8938;53.546;9.954;2023-04-21T07:01:22;14.50;99.90
17639;DHT22;8938;53.546;9.954;2023-04-21T07:03:49;14.50;99.90
17639;DHT22;8938;53.546;9.954;2023-04-21T07:06:15;14.50;99.90
17639;DHT22;8938;53.546;9.954;2023-04-21T07:08:40;14.60;99.90
17639;DHT22;8938;53.546;9.954;2023-04-21T07:11:06;14.60;99.90
17639;DHT22;8938;53.546;9.954;2023-04-21T07:13:31;14.80;99.90
17639;DHT22;8938;53.546;9.954;2023-04-21T07:15:57;14.70;99.90
17639;DHT22;8938;53.546;9.954;2023-04-21T07:18:23;14.80;99.90
17639;DHT22;8938;53.546;9.954;2023-04-21T07:20:48;14.90;99.90
17639;DHT22;8938;53.546;9.954;2023-04-21T07:23:14;15.00;99.90
17639;DHT22;8938;53.546;9.954;2023-04-21T07:25:39;15.10;99.90
17639;DHT22;8938;53.546;9.954;2023-04-21T07:28:05;15.10;99.90
17639;DHT22;8938;53.546;9.954;2023-04-21T07:30:31;15.20;99.90
17639;DHT22;8938;53.546;9.954;2023-04-21T07:32:56;15.30;99.90
17639;DHT22;8938;53.546;9.954;2023-04-21T07:35:22;15.50;99.90
17639;DHT22;8938;53.546;9.954;2023-04-21T07:37:48;15.60;99.90
17639;DHT22;8938;53.546;9.954;2023-04-21T07:40:14;15.60;99.90
17639;DHT22;8938;53.546;9.954;2023-04-21T07:42:39;15.70;99.90
17639;DHT22;8938;53.546;9.954;2023-04-21T07:45:05;15.80;99.90
17639;DHT22;8938;53.546;9.954;2023-04-21T07:47:32;15.90;99.90
17639;DHT22;8938;53.546;9.954;2023-04-21T07:49:57;16.00;99.90
17639;DHT22;8938;53.546;9.954;2023-04-21T07:52:23;16.10;99.70
17639;DHT22;8938;53.546;9.954;2023-04-21T07:54:49;16.20;99.40
17639;DHT22;8938;53.546;9.954;2023-04-21T07:57:15;16.20;99.40
17639;DHT22;8938;53.546;9.954;2023-04-21T07:59:40;16.30;99.30
17639;DHT22;8938;53.546;9.954;2023-04-21T08:02:07;16.30;99.60
17639;DHT22;8938;53.546;9.954;2023-04-21T08:04:32;16.40;99.40
17639;DHT22;8938;53.546;9.954;2023-04-21T08:06:58;16.60;99.20
17639;DHT22;8938;53.546;9.954;2023-04-21T08:09:24;16.70;99.10
17639;DHT22;8938;53.546;9.954;2023-04-21T08:11:50;16.70;99.00
17639;DHT22;8938;53.546;9.954;2023-04-21T08:14:15;16.80;98.60
17639;DHT22;8938;53.546;9.954;2023-04-21T08:16:41;16.90;98.90
17639;DHT22;8938;53.546;9.954;2023-04-21T08:19:08;16.90;98.70
17639;DHT22;8938;53.546;9.954;2023-04-21T08:21:34;17.20;98.70
17639;DHT22;8938;53.546;9.954;2023-04-21T08:24:00;17.50;98.50
17639;DHT22;8938;53.546;9.954;2023-04-21T08:26:26;17.50;98.30
17639;DHT22;8938;53.546;9.954;2023-04-21T08:28:54;17.50;97.70
17639;DHT22;8938;53.546;9.954;2023-04-21T08:31:26;17.50;97.80
17639;DHT22;8938;53.546;9.954;2023-04-21T08:33:52;17.50;97.90
17639;DHT22;8938;53.546;9.954;2023-04-21T08:36:18;17.70;97.70
17639;DHT22;8938;53.546;9.954;2023-04-21T08:38:44;17.80;97.50
17639;DHT22;8938;53.546;9.954;2023-04-21T08:41:11;17.90;97.50
17639;DHT22;8938;53.546;9.954;2023-04-21T08:43:37;18.00;97.30
17639;DHT22;8938;53.546;9.954;2023-04-21T08:46:06;18.10;97.10
17639;DHT22;8938;53.546;9.954;2023-04-21T08:48:35;18.30;97.10
17639;DHT22;8938;53.546;9.954;2023-04-21T08:51:01;18.10;96.70
17639;DHT22;8938;53.546;9.954;2023-04-21T08:53:27;18.30;97.00
17639;DHT22;8938;53.546;9.954;2023-04-21T08:55:54;18.20;96.60
17639;DHT22;8938;53.546;9.954;2023-04-21T08:58:20;18.40;97.00
17639;DHT22;8938;53.546;9.954;2023-04-21T09:00:49;18.30;96.50
17639;DHT22;8938;53.546;9.954;2023-04-21T09:03:21;18.50;96.50
17639;DHT22;8938;53.546;9.954;2023-04-21T09:06:00;18.60;96.60
17639;DHT22;8938;53.546;9.954;2023-04-21T09:08:26;18.70;96.30
17639;DHT22;8938;53.546;9.954;2023-04-21T09:10:54;18.80;96.40
17639;DHT22;8938;53.546;9.954;2023-04-21T09:13:20;18.90;96.20
17639;DHT22;8938;53.546;9.954;2023-04-21T09:15:49;19.00;96.10
17639;DHT22;8938;53.546;9.954;2023-04-21T09:18:21;19.10;96.00
17639;DHT22;8938;53.546;9.954;2023-04-21T09:20:50;19.10;95.50
17639;DHT22;8938;53.546;9.954;2023-04-21T09:23:16;19.20;95.80
17639;DHT22;8938;53.546;9.954;2023-04-21T09:25:43;19.30;95.80
17639;DHT22;8938;53.546;9.954;2023-04-21T09:28:10;19.40;95.20
17639;DHT22;8938;53.546;9.954;2023-04-21T09:30:37;19.70;95.30
17639;DHT22;8938;53.546;9.954;2023-04-21T09:33:03;21.30;94.80
17639;DHT22;8938;53.546;9.954;2023-04-21T09:35:35;23.10;93.40
17639;DHT22;8938;53.546;9.954;2023-04-21T09:38:02;24.80;91.20
17639;DHT22;8938;53.546;9.954;2023-04-21T09:40:31;25.90;89.30
17639;DHT22;8938;53.546;9.954;2023-04-21T09:42:56;26.80;83.80
17639;DHT22;8938;53.546;9.954;2023-04-21T09:45:26;27.30;81.20
17639;DHT22;8938;53.546;9.954;2023-04-21T09:47:56;27.80;79.60
17639;DHT22;8938;53.546;9.954;2023-04-21T09:50:23;28.00;76.20
17639;DHT22;8938;53.546;9.954;2023-04-21T09:52:51;28.00;75.70
17639;DHT22;8938;53.546;9.954;2023-04-21T09:55:18;28.20;73.90
17639;DHT22;8938;53.546;9.954;2023-04-21T09:57:46;28.30;73.40
17639;DHT22;8938;53.546;9.954;2023-04-21T10:00:18;28.40;71.80
17639;DHT22;8938;53.546;9.954;2023-04-21T10:02:50;28.50;70.70
17639;DHT22;8938;53.546;9.954;2023-04-21T10:05:16;28.20;70.40
17639;DHT22;8938;53.546;9.954;2023-04-21T10:07:43;28.00;69.90
17639;DHT22;8938;53.546;9.954;2023-04-21T10:10:36;28.10;70.30
17639;DHT22;8938;53.546;9.954;2023-04-21T10:13:03;28.20;70.40
17639;DHT22;8938;53.546;9.954;2023-04-21T10:15:33;27.90;68.10
17639;DHT22;8938;53.546;9.954;2023-04-21T10:23:42;27.90;69.60
17639;DHT22;8938;53.546;9.954;2023-04-21T10:26:22;27.60;69.20
17639;DHT22;8938;53.546;9.954;2023-04-21T10:28:57;27.50;69.10
17639;DHT22;8938;53.546;9.954;2023-04-21T10:31:51;27.40;69.70
17639;DHT22;8938;53.546;9.954;2023-04-21T10:39:29;27.00;69.80
17639;DHT22;8938;53.546;9.954;2023-04-21T10:42:23;26.50;70.60
17639;DHT22;8938;53.546;9.954;2023-04-21T10:47:41;25.40;71.60
17639;DHT22;8938;53.546;9.954;2023-04-21T10:50:28;24.90;72.60
17639;DHT22;8938;53.546;9.954;2023-04-21T10:53:06;24.60;73.60
17639;DHT22;8938;53.546;9.954;2023-04-21T10:55:32;24.30;73.80
17639;DHT22;8938;53.546;9.954;2023-04-21T10:58:01;23.80;75.10
17639;DHT22;8938;53.546;9.954;2023-04-21T11:00:27;23.40;73.80
17639;DHT22;8938;53.546;9.954;2023-04-21T11:02:57;23.00;74.10
17639;DHT22;8938;53.546;9.954;2023-04-21T11:05:27;22.80;75.80
17639;DHT22;8938;53.546;9.954;2023-04-21T11:08:05;22.40;76.20
17639;DHT22;8938;53.546;9.954;2023-04-21T11:10:46;22.40;77.50
17639;DHT22;8938;53.546;9.954;2023-04-21T11:13:11;22.50;77.20
17639;DHT22;8938;53.546;9.954;2023-04-21T11:15:37;22.60;76.50
17639;DHT22;8938;53.546;9.954;2023-04-21T11:18:02;22.70;76.00
17639;DHT22;8938;53.546;9.954;2023-04-21T11:20:28;22.90;76.50
17639;DHT22;8938;53.546;9.954;2023-04-21T11:22:55;22.90;76.20
17639;DHT22;8938;53.546;9.954;2023-04-21T11:25:21;22.90;76.60
17639;DHT22;8938;53.546;9.954;2023-04-21T11:27:54;22.90;77.10
17639;DHT22;8938;53.546;9.954;2023-04-21T11:30:21;22.70;75.80
17639;DHT22;8938;53.546;9.954;2023-04-21T11:32:54;22.70;74.80
17639;DHT22;8938;53.546;9.954;2023-04-21T11:35:20;22.70;74.90
17639;DHT22;8938;53.546;9.954;2023-04-21T11:37:49;22.70;74.80
17639;DHT22;8938;53.546;9.954;2023-04-21T11:40:21;22.90;75.30
17639;DHT22;8938;53.546;9.954;2023-04-21T11:42:47;23.00;75.60
17639;DHT22;8938;53.546;9.954;2023-04-21T11:45:19;23.10;75.00
17639;DHT22;8938;53.546;9.954;2023-04-21T11:47:44;23.20;74.80
17639;DHT22;8938;53.546;9.954;2023-04-21T11:50:10;23.40;74.90
17639;DHT22;8938;53.546;9.954;2023-04-21T11:52:36;23.30;73.20
17639;DHT22;8938;53.546;9.954;2023-04-21T11:55:07;23.30;73.40
17639;DHT22;8938;53.546;9.954;2023-04-21T11:57:35;23.40;73.70
17639;DHT22;8938;53.546;9.954;2023-04-21T12:00:05;23.60;73.70
17639;DHT22;8938;53.546;9.954;2023-04-21T12:02:31;23.50;72.30
17639;DHT22;8938;53.546;9.954;2023-04-21T12:05:01;23.40;73.60
17639;DHT22;8938;53.546;9.954;2023-04-21T12:07:29;23.50;73.20
17639;DHT22;8938;53.546;9.954;2023-04-21T12:09:55;23.50;73.20
17639;DHT22;8938;53.546;9.954;2023-04-21T12:12:22;23.40;73.10
17639;DHT22;8938;53.546;9.954;2023-04-21T12:14:49;23.50;73.60
17639;DHT22;8938;53.546;9.954;2023-04-21T12:17:16;23.70;73.90
17639;DHT22;8938;53.546;9.954;2023-04-21T12:19:42;24.10;72.40
17639;DHT22;8938;53.546;9.954;2023-04-21T12:22:12;24.10;71.20
17639;DHT22;8938;53.546;9.954;2023-04-21T12:24:38;24.00;70.10
17639;DHT22;8938;53.546;9.954;2023-04-21T12:27:05;23.80;69.60
17639;DHT22;8938;53.546;9.954;2023-04-21T12:29:31;24.00;70.10
17639;DHT22;8938;53.546;9.954;2023-04-21T12:31:59;24.20;69.40
17639;DHT22;8938;53.546;9.954;2023-04-21T12:34:24;24.10;68.00
17639;DHT22;8938;53.546;9.954;2023-04-21T12:36:50;24.10;66.40
17639;DHT22;8938;53.546;9.954;2023-04-21T12:39:15;24.20;66.10
17639;DHT22;8938;53.546;9.954;2023-04-21T12:41:43;24.30;66.40
17639;DHT22;8938;53.546;9.954;2023-04-21T12:44:08;24.40;65.30
17639;DHT22;8938;53.546;9.954;2023-04-21T12:46:34;24.40;65.60
17639;DHT22;8938;53.546;9.954;2023-04-21T12:49:00;24.50;66.40
17639;DHT22;8938;53.546;9.954;2023-04-21T12:51:25;24.50;65.40
17639;DHT22;8938;53.546;9.954;2023-04-21T12:53:51;24.60;65.80
17639;DHT22;8938;53.546;9.954;2023-04-21T12:56:17;24.50;66.60
17639;DHT22;8938;53.546;9.954;2023-04-21T12:58:42;24.20;66.10
17639;DHT22;8938;53.546;9.954;2023-04-21T13:01:08;24.10;64.80
17639;DHT22;8938;53.546;9.954;2023-04-21T13:03:34;24.00;64.60
17639;DHT22;8938;53.546;9.954;2023-04-21T13:05:59;23.90;66.60
17639;DHT22;8938;53.546;9.954;2023-04-21T13:08:25;23.70;67.80
17639;DHT22;8938;53.546;9.954;2023-04-21T13:10:51;23.60;67.40
17639;DHT22;8938;53.546;9.954;2023-04-21T13:13:16;23.90;67.80
17639;DHT22;8938;53.546;9.954;2023-04-21T13:15:42;24.60;66.10
17639;DHT22;8938;53.546;9.954;2023-04-21T13:18:07;24.70;66.00
17639;DHT22;8938;53.546;9.954;2023-04-21T13:20:33;24.50;66.20
17639;DHT22;8938;53.546;9.954;2023-04-21T13:22:58;24.60;66.30
17639;DHT22;8938;53.546;9.954;2023-04-21T13:25:24;24.40;65.80
17639;DHT22;8938;53.546;9.954;2023-04-21T13:27:49;24.70;65.30
17639;DHT22;8938;53.546;9.954;2023-04-21T13:30:17;24.70;65.00
17639;DHT22;8938;53.546;9.954;2023-04-21T13:32:43;24.80;64.80
17639;DHT22;8938;53.546;9.954;2023-04-21T13:35:08;24.80;64.80
17639;DHT22;8938;53.546;9.954;2023-04-21T13:37:38;24.40;65.60
17639;DHT22;8938;53.546;9.954;2023-04-21T13:40:05;24.50;65.30
17639;DHT22;8938;53.546;9.954;2023-04-21T13:42:31;24.40;66.10
17639;DHT22;8938;53.546;9.954;2023-04-21T13:44:58;24.10;66.50
17639;DHT22;8938;53.546;9.954;2023-04-21T13:47:23;23.90;66.50
17639;DHT22;8938;53.546;9.954;2023-04-21T13:49:49;23.90;66.70
17639;DHT22;8938;53.546;9.954;2023-04-21T13:52:16;24.20;66.60
17639;DHT22;8938;53.546;9.954;2023-04-21T13:54:42;24.50;66.10
17639;DHT22;8938;53.546;9.954;2023-04-21T13:57:07;24.70;65.60
17639;DHT22;8938;53.546;9.954;2023-04-21T13:59:33;24.60;65.70
17639;DHT22;8938;53.546;9.954;2023-04-21T14:01:59;24.70;65.10
17639;DHT22;8938;53.546;9.954;2023-04-21T14:04:24;24.70;65.40
17639;DHT22;8938;53.546;9.954;2023-04-21T14:06:50;24.70;65.30
17639;DHT22;8938;53.546;9.954;2023-04-21T14:09:16;24.60;65.80
17639;DHT22;8938;53.546;9.954;2023-04-21T14:11:42;24.50;66.60
17639;DHT22;8938;53.546;9.954;2023-04-21T14:14:07;24.40;66.20
17639;DHT22;8938;53.546;9.954;2023-04-21T14:16:33;24.30;66.90
17639;DHT22;8938;53.546;9.954;2023-04-21T14:18:58;24.10;67.10
17639;DHT22;8938;53.546;9.954;2023-04-21T14:21:24;24.00;67.10
17639;DHT22;8938;53.546;9.954;2023-04-21T14:23:50;23.80;66.80
17639;DHT22;8938;53.546;9.954;2023-04-21T14:26:15;23.60;67.60
17639;DHT22;8938;53.546;9.954;2023-04-21T14:28:41;23.60;68.10
17639;DHT22;8938;53.546;9.954;2023-04-21T14:31:06;23.70;67.90
17639;DHT22;8938;53.546;9.954;2023-04-21T14:33:32;23.90;67.40
17639;DHT22;8938;53.546;9.954;2023-04-21T14:35:58;24.00;66.80
17639;DHT22;8938;53.546;9.954;2023-04-21T14:38:24;24.10;67.20
17639;DHT22;8938;53.546;9.954;2023-04-21T14:40:50;24.00;67.50
17639;DHT22;8938;53.546;9.954;2023-04-21T14:43:19;23.80;68.20
17639;DHT22;8938;53.546;9.954;2023-04-21T14:45:44;23.60;67.90
17639;DHT22;8938;53.546;9.954;2023-04-21T14:48:10;23.40;67.80
17639;DHT22;8938;53.546;9.954;2023-04-21T14:50:38;23.60;68.20
17639;DHT22;8938;53.546;9.954;2023-04-21T14:53:04;23.50;68.00
17639;DHT22;8938;53.546;9.954;2023-04-21T14:55:29;23.40;68.30
17639;DHT22;8938;53.546;9.954;2023-04-21T14:57:56;23.50;68.40
17639;DHT22;8938;53.546;9.954;2023-04-21T15:00:22;23.40;68.40
17639;DHT22;8938;53.546;9.954;2023-04-21T15:02:48;23.30;69.20
17639;DHT22;8938;53.546;9.954;2023-04-21T15:05:14;23.10;69.80
17639;DHT22;8938;53.546;9.954;2023-04-21T15:07:39;23.00;70.50
17639;DHT22;8938;53.546;9.954;2023-04-21T15:10:07;23.10;70.50
17639;DHT22;8938;53.546;9.954;2023-04-21T15:12:32;23.20;69.30
17639;DHT22;8938;53.546;9.954;2023-04-21T15:14:58;23.20;68.70
17639;DHT22;8938;53.546;9.954;2023-04-21T15:17:23;23.40;68.80
17639;DHT22;8938;53.546;9.954;2023-04-21T15:19:49;23.70;68.90
17639;DHT22;8938;53.546;9.954;2023-04-21T15:22:15;23.90;68.70
17639;DHT22;8938;53.546;9.954;2023-04-21T15:24:40;23.90;68.80
17639;DHT22;8938;53.546;9.954;2023-04-21T15:27:06;24.00;69.60
17639;DHT22;8938;53.546;9.954;2023-04-21T15:29:31;23.20;70.50
17639;DHT22;8938;53.546;9.954;2023-04-21T15:31:57;23.20;71.10
17639;DHT22;8938;53.546;9.954;2023-04-21T15:34:23;23.00;70.70
17639;DHT22;8938;53.546;9.954;2023-04-21T15:36:48;22.90;70.10
17639;DHT22;8938;53.546;9.954;2023-04-21T15:39:14;23.00;70.20
17639;DHT22;8938;53.546;9.954;2023-04-21T15:41:40;23.10;69.80
17639;DHT22;8938;53.546;9.954;2023-04-21T15:44:05;23.30;69.50
17639;DHT22;8938;53.546;9.954;2023-04-21T15:46:31;23.20;69.30
17639;DHT22;8938;53.546;9.954;2023-04-21T15:48:58;23.30;69.50
17639;DHT22;8938;53.546;9.954;2023-04-21T15:51:24;23.40;69.80
17639;DHT22;8938;53.546;9.954;2023-04-21T15:53:49;23.40;69.50
17639;DHT22;8938;53.546;9.954;2023-04-21T15:56:15;23.40;69.80
17639;DHT22;8938;53.546;9.954;2023-04-21T15:58:41;23.40;69.30